sensor_id;sensor_type;location;lat;lon;timestamp;P1;durP1;ratioP1;P2;durP2;ratioP2
1523;SDS011;755;53.658;10.118;2022-11-14T00:02:27;55.90;;;25.50;;
1523;SDS011;755;53.658;10.118;2022-11-14T00:12:31;51.00;;;25.08;;
1523;SDS011;755;53.658;10.118;2022-11-14T00:22:37;59.88;;;26.67;;
1523;SDS011;755;53.658;10.118;2022-11-14T00:32:59;52.38;;;25.08;;
1523;SDS011;755;53.658;10.118;2022-11-14T00:43:06;46.67;;;22.50;;
1523;SDS011;755;53.658;10.118;2022-11-14T00:53:15;60.60;;;28.15;;
1523;SDS011;755;53.658;10.118;2022-11-14T01:03:22;58.00;;;25.35;;
1523;SDS011;755;53.658;10.118;2022-11-14T01:13:29;55.15;;;24.65;;
1523;SDS011;755;53.658;10.118;2022-11-14T01:23:39;49.90;;;23.05;;
1523;SDS011;755;53.658;10.118;2022-11-14T01:33:47;55.83;;;24.83;;
1523;SDS011;755;53.658;10.118;2022-11-14T01:43:55;54.53;;;24.05;;
1523;SDS011;755;53.658;10.118;2022-11-14T01:54:01;60.35;;;24.65;;
1523;SDS011;755;53.658;10.118;2022-11-14T02:04:12;61.78;;;26.15;;
1523;SDS011;755;53.658;10.118;2022-11-14T02:14:20;57.90;;;25.08;;
1523;SDS011;755;53.658;10.118;2022-11-14T02:24:31;66.30;;;27.00;;
1523;SDS011;755;53.658;10.118;2022-11-14T02:34:34;69.43;;;26.70;;
1523;SDS011;755;53.658;10.118;2022-11-14T02:44:43;61.75;;;25.65;;
1523;SDS011;755;53.658;10.118;2022-11-14T02:54:46;55.88;;;25.35;;
1523;SDS011;755;53.658;10.118;2022-11-14T03:04:51;66.85;;;26.25;;
1523;SDS011;755;53.658;10.118;2022-11-14T03:14:57;59.08;;;25.30;;
1523;SDS011;755;53.658;10.118;2022-11-14T03:25:02;68.22;;;27.90;;
1523;SDS011;755;53.658;10.118;2022-11-14T03:35:06;63.95;;;26.35;;
1523;SDS011;755;53.658;10.118;2022-11-14T03:45:19;60.53;;;27.65;;
1523;SDS011;755;53.658;10.118;2022-11-14T03:55:22;59.60;;;26.08;;
1523;SDS011;755;53.658;10.118;2022-11-14T04:05:36;67.00;;;27.45;;
1523;SDS011;755;53.658;10.118;2022-11-14T04:15:40;65.90;;;27.00;;
1523;SDS011;755;53.658;10.118;2022-11-14T04:25:48;59.43;;;26.40;;
1523;SDS011;755;53.658;10.118;2022-11-14T04:36:00;66.13;;;27.83;;
1523;SDS011;755;53.658;10.118;2022-11-14T04:46:11;67.15;;;27.42;;
1523;SDS011;755;53.658;10.118;2022-11-14T04:56:28;59.75;;;26.40;;
1523;SDS011;755;53.658;10.118;2022-11-14T05:06:35;52.30;;;24.77;;
1523;SDS011;755;53.658;10.118;2022-11-14T05:16:38;64.43;;;26.42;;
1523;SDS011;755;53.658;10.118;2022-11-14T05:26:44;63.25;;;27.05;;
1523;SDS011;755;53.658;10.118;2022-11-14T05:36:47;58.22;;;25.83;;
1523;SDS011;755;53.658;10.118;2022-11-14T05:46:51;63.05;;;26.15;;
1523;SDS011;755;53.658;10.118;2022-11-14T05:56:54;61.90;;;26.88;;
1523;SDS011;755;53.658;10.118;2022-11-14T06:06:58;67.45;;;26.92;;
1523;SDS011;755;53.658;10.118;2022-11-14T06:17:05;70.15;;;26.48;;
1523;SDS011;755;53.658;10.118;2022-11-14T06:38:00;69.38;;;27.27;;
1523;SDS011;755;53.658;10.118;2022-11-14T06:48:19;66.93;;;27.35;;
1523;SDS011;755;53.658;10.118;2022-11-14T06:58:28;68.43;;;28.52;;
1523;SDS011;755;53.658;10.118;2022-11-14T07:08:40;73.10;;;29.00;;
1523;SDS011;755;53.658;10.118;2022-11-14T07:18:47;70.93;;;28.85;;
1523;SDS011;755;53.658;10.118;2022-11-14T07:28:50;75.97;;;29.02;;
1523;SDS011;755;53.658;10.118;2022-11-14T07:38:56;79.55;;;31.30;;
1523;SDS011;755;53.658;10.118;2022-11-14T07:49:01;69.40;;;28.33;;
1523;SDS011;755;53.658;10.118;2022-11-14T07:59:07;76.75;;;29.08;;
1523;SDS011;755;53.658;10.118;2022-11-14T08:09:10;89.65;;;30.95;;
1523;SDS011;755;53.658;10.118;2022-11-14T08:19:15;80.45;;;30.83;;
1523;SDS011;755;53.658;10.118;2022-11-14T08:29:18;81.13;;;30.45;;
1523;SDS011;755;53.658;10.118;2022-11-14T08:39:22;87.82;;;29.33;;
1523;SDS011;755;53.658;10.118;2022-11-14T08:49:26;75.32;;;29.60;;
1523;SDS011;755;53.658;10.118;2022-11-14T08:59:30;81.80;;;28.92;;
1523;SDS011;755;53.658;10.118;2022-11-14T09:09:33;87.78;;;29.90;;
1523;SDS011;755;53.658;10.118;2022-11-14T09:19:37;83.20;;;29.13;;
1523;SDS011;755;53.658;10.118;2022-11-14T09:29:39;77.40;;;27.70;;
1523;SDS011;755;53.658;10.118;2022-11-14T09:39:46;90.47;;;30.38;;
1523;SDS011;755;53.658;10.118;2022-11-14T09:49:49;85.70;;;30.38;;
1523;SDS011;755;53.658;10.118;2022-11-14T09:59:56;81.20;;;31.07;;
1523;SDS011;755;53.658;10.118;2022-11-14T10:10:02;75.97;;;28.83;;
1523;SDS011;755;53.658;10.118;2022-11-14T10:20:15;77.88;;;28.70;;
1523;SDS011;755;53.658;10.118;2022-11-14T10:30:23;73.50;;;28.40;;
1523;SDS011;755;53.658;10.118;2022-11-14T10:40:38;72.45;;;26.98;;
1523;SDS011;755;53.658;10.118;2022-11-14T10:50:52;75.10;;;28.05;;
1523;SDS011;755;53.658;10.118;2022-11-14T11:00:57;68.25;;;26.70;;
1523;SDS011;755;53.658;10.118;2022-11-14T11:11:40;70.68;;;28.02;;
1523;SDS011;755;53.658;10.118;2022-11-14T11:21:54;68.47;;;27.25;;
1523;SDS011;755;53.658;10.118;2022-11-14T11:31:58;62.30;;;25.40;;
1523;SDS011;755;53.658;10.118;2022-11-14T11:42:01;60.42;;;26.52;;
1523;SDS011;755;53.658;10.118;2022-11-14T11:52:14;67.90;;;25.85;;
1523;SDS011;755;53.658;10.118;2022-11-14T12:02:20;62.90;;;26.38;;
1523;SDS011;755;53.658;10.118;2022-11-14T12:12:28;63.80;;;25.83;;
1523;SDS011;755;53.658;10.118;2022-11-14T12:22:57;62.50;;;24.42;;
1523;SDS011;755;53.658;10.118;2022-11-14T12:33:33;55.15;;;22.67;;
1523;SDS011;755;53.658;10.118;2022-11-14T12:43:39;58.23;;;24.83;;
1523;SDS011;755;53.658;10.118;2022-11-14T12:53:43;55.92;;;23.45;;
1523;SDS011;755;53.658;10.118;2022-11-14T13:03:49;54.88;;;23.17;;
1523;SDS011;755;53.658;10.118;2022-11-14T13:14:07;58.50;;;23.27;;
1523;SDS011;755;53.658;10.118;2022-11-14T13:35:19;52.38;;;23.58;;
1523;SDS011;755;53.658;10.118;2022-11-14T13:45:43;52.78;;;22.45;;
1523;SDS011;755;53.658;10.118;2022-11-14T13:55:59;52.50;;;22.30;;
1523;SDS011;755;53.658;10.118;2022-11-14T14:06:15;57.47;;;23.80;;
1523;SDS011;755;53.658;10.118;2022-11-14T14:16:32;52.60;;;22.40;;
1523;SDS011;755;53.658;10.118;2022-11-14T14:26:43;54.50;;;21.92;;
1523;SDS011;755;53.658;10.118;2022-11-14T14:47:08;53.63;;;21.58;;
1523;SDS011;755;53.658;10.118;2022-11-14T14:57:17;56.38;;;23.25;;
1523;SDS011;755;53.658;10.118;2022-11-14T15:07:22;63.85;;;23.83;;
1523;SDS011;755;53.658;10.118;2022-11-14T15:17:28;55.63;;;22.35;;
1523;SDS011;755;53.658;10.118;2022-11-14T15:27:31;54.53;;;22.15;;
1523;SDS011;755;53.658;10.118;2022-11-14T15:37:35;60.25;;;23.50;;
1523;SDS011;755;53.658;10.118;2022-11-14T15:47:37;56.42;;;23.35;;
1523;SDS011;755;53.658;10.118;2022-11-14T15:57:42;64.25;;;24.60;;
1523;SDS011;755;53.658;10.118;2022-11-14T16:07:44;62.30;;;24.52;;
1523;SDS011;755;53.658;10.118;2022-11-14T16:17:49;62.13;;;23.90;;
1523;SDS011;755;53.658;10.118;2022-11-14T16:27:51;71.90;;;27.85;;
1523;SDS011;755;53.658;10.118;2022-11-14T16:37:55;65.13;;;26.08;;
1523;SDS011;755;53.658;10.118;2022-11-14T16:47:57;59.75;;;24.75;;
1523;SDS011;755;53.658;10.118;2022-11-14T16:58:01;69.90;;;27.38;;
1523;SDS011;755;53.658;10.118;2022-11-14T17:08:04;63.67;;;26.00;;
1523;SDS011;755;53.658;10.118;2022-11-14T17:18:08;67.90;;;28.63;;
1523;SDS011;755;53.658;10.118;2022-11-14T17:28:10;69.05;;;25.80;;
1523;SDS011;755;53.658;10.118;2022-11-14T17:38:15;60.72;;;24.52;;
1523;SDS011;755;53.658;10.118;2022-11-14T17:48:19;65.40;;;25.20;;
1523;SDS011;755;53.658;10.118;2022-11-14T17:58:23;67.95;;;26.33;;
1523;SDS011;755;53.658;10.118;2022-11-14T18:08:27;72.03;;;27.98;;
1523;SDS011;755;53.658;10.118;2022-11-14T18:18:31;88.93;;;37.55;;
1523;SDS011;755;53.658;10.118;2022-11-14T18:28:35;68.40;;;26.55;;
1523;SDS011;755;53.658;10.118;2022-11-14T18:38:39;69.10;;;27.00;;
1523;SDS011;755;53.658;10.118;2022-11-14T18:48:44;65.85;;;27.50;;
1523;SDS011;755;53.658;10.118;2022-11-14T18:58:50;65.78;;;26.70;;
1523;SDS011;755;53.658;10.118;2022-11-14T19:08:54;68.93;;;26.67;;
1523;SDS011;755;53.658;10.118;2022-11-14T19:18:58;73.50;;;29.00;;
1523;SDS011;755;53.658;10.118;2022-11-14T19:29:03;58.92;;;24.83;;
1523;SDS011;755;53.658;10.118;2022-11-14T19:39:08;58.35;;;24.55;;
1523;SDS011;755;53.658;10.118;2022-11-14T19:49:10;59.58;;;25.23;;
1523;SDS011;755;53.658;10.118;2022-11-14T19:59:13;57.05;;;25.10;;
1523;SDS011;755;53.658;10.118;2022-11-14T20:09:15;58.45;;;24.30;;
1523;SDS011;755;53.658;10.118;2022-11-14T20:19:18;67.57;;;27.13;;
1523;SDS011;755;53.658;10.118;2022-11-14T20:29:20;69.15;;;27.90;;
1523;SDS011;755;53.658;10.118;2022-11-14T20:39:24;59.92;;;25.90;;
1523;SDS011;755;53.658;10.118;2022-11-14T20:49:26;101.63;;;42.88;;
1523;SDS011;755;53.658;10.118;2022-11-14T20:59:29;64.40;;;28.35;;
1523;SDS011;755;53.658;10.118;2022-11-14T21:09:32;63.40;;;25.20;;
1523;SDS011;755;53.658;10.118;2022-11-14T21:19:35;68.53;;;26.02;;
1523;SDS011;755;53.658;10.118;2022-11-14T21:29:37;66.72;;;25.95;;
1523;SDS011;755;53.658;10.118;2022-11-14T21:39:40;69.18;;;27.35;;
1523;SDS011;755;53.658;10.118;2022-11-14T21:49:42;59.75;;;26.02;;
1523;SDS011;755;53.658;10.118;2022-11-14T21:59:46;64.88;;;26.13;;
1523;SDS011;755;53.658;10.118;2022-11-14T22:09:48;73.88;;;27.52;;
1523;SDS011;755;53.658;10.118;2022-11-14T22:19:51;62.95;;;26.60;;
1523;SDS011;755;53.658;10.118;2022-11-14T22:29:53;65.07;;;27.00;;
1523;SDS011;755;53.658;10.118;2022-11-14T22:39:56;67.65;;;26.73;;
1523;SDS011;755;53.658;10.118;2022-11-14T22:49:58;56.25;;;25.90;;
1523;SDS011;755;53.658;10.118;2022-11-14T23:00:01;61.97;;;26.30;;
1523;SDS011;755;53.658;10.118;2022-11-14T23:10:04;67.28;;;27.73;;
1523;SDS011;755;53.658;10.118;2022-11-14T23:20:09;69.25;;;26.30;;
1523;SDS011;755;53.658;10.118;2022-11-14T23:30:12;62.42;;;26.38;;
1523;SDS011;755;53.658;10.118;2022-11-14T23:40:16;79.13;;;29.42;;
1523;SDS011;755;53.658;10.118;2022-11-14T23:50:18;72.15;;;27.00;;
